createdAt,value
2023-01-17T00:02:20.090Z,1.30
2023-01-17T00:04:46.984Z,1.26
2023-01-17T00:07:15.131Z,1.35
2023-01-17T00:09:43.318Z,1.42
2023-01-17T00:12:10.166Z,1.50
2023-01-17T00:14:37.358Z,1.67
2023-01-17T00:17:04.217Z,1.66
2023-01-17T00:19:31.524Z,1.65
2023-01-17T00:21:58.353Z,1.74
2023-01-17T00:24:25.175Z,1.80
2023-01-17T00:26:52.187Z,1.73
2023-01-17T00:29:18.978Z,1.63
2023-01-17T00:31:45.986Z,1.66
2023-01-17T00:34:13.083Z,1.44
2023-01-17T00:36:40.022Z,1.36
2023-01-17T00:39:07.078Z,1.62
2023-01-17T00:41:33.913Z,1.64
2023-01-17T00:44:00.994Z,1.72
2023-01-17T00:46:28.265Z,1.75
2023-01-17T00:48:55.354Z,1.73
2023-01-17T00:51:22.128Z,1.70
2023-01-17T00:53:49.487Z,1.70
2023-01-17T00:56:16.320Z,1.74
2023-01-17T00:58:43.153Z,1.77
2023-01-17T01:01:10.241Z,1.73
2023-01-17T01:03:37.169Z,1.73
2023-01-17T01:06:04.235Z,1.70
2023-01-17T01:08:31.097Z,1.72
2023-01-17T01:10:58.282Z,1.71
2023-01-17T01:13:25.178Z,1.69
2023-01-17T01:15:52.279Z,1.69
2023-01-17T01:18:19.181Z,1.74
2023-01-17T01:20:46.087Z,1.78
2023-01-17T01:23:12.929Z,1.74
2023-01-17T01:25:39.878Z,1.75
2023-01-17T01:28:06.721Z,1.65
2023-01-17T01:30:33.643Z,1.63
2023-01-17T01:33:00.641Z,1.65
2023-01-17T01:35:27.499Z,1.51
2023-01-17T01:37:54.296Z,1.52
2023-01-17T01:40:21.244Z,1.52
2023-01-17T01:42:48.075Z,1.52
2023-01-17T01:45:14.966Z,1.51
2023-01-17T01:47:41.719Z,1.62
2023-01-17T01:50:08.720Z,1.65
2023-01-17T01:52:35.560Z,1.67
2023-01-17T01:55:02.557Z,1.68
2023-01-17T01:57:29.459Z,1.74
2023-01-17T01:59:56.299Z,1.73
2023-01-17T02:02:23.484Z,1.76
2023-01-17T02:04:50.320Z,1.73
2023-01-17T02:07:17.247Z,1.66
2023-01-17T02:09:44.243Z,1.69
2023-01-17T02:12:11.396Z,1.60
2023-01-17T02:14:38.381Z,1.53
2023-01-17T02:17:05.232Z,1.53
2023-01-17T02:19:32.453Z,1.56
2023-01-17T02:21:59.291Z,1.33
2023-01-17T02:24:27.032Z,1.53
2023-01-17T02:26:53.869Z,1.44
2023-01-17T02:29:20.746Z,1.53
2023-01-17T02:31:47.672Z,1.54
2023-01-17T02:34:14.530Z,1.59
2023-01-17T02:36:41.844Z,1.62
2023-01-17T02:39:09.204Z,1.70
2023-01-17T02:41:36.099Z,1.69
2023-01-17T02:44:02.954Z,1.68
2023-01-17T02:46:29.901Z,1.72
2023-01-17T02:48:56.898Z,1.62
2023-01-17T02:51:24.040Z,1.46
2023-01-17T02:53:50.975Z,1.53
2023-01-17T02:56:17.854Z,1.51
2023-01-17T02:58:44.658Z,1.45
2023-01-17T03:01:11.974Z,1.57
2023-01-17T03:03:38.962Z,1.59
2023-01-17T03:06:05.742Z,1.36
2023-01-17T03:08:33.017Z,1.33
2023-01-17T03:10:59.908Z,1.37
2023-01-17T03:13:27.303Z,1.34
2023-01-17T03:15:54.184Z,1.42
2023-01-17T03:18:21.250Z,1.43
2023-01-17T03:20:48.159Z,1.17
2023-01-17T03:23:15.135Z,1.34
2023-01-17T03:25:41.998Z,1.40
2023-01-17T03:28:08.856Z,1.35
2023-01-17T03:30:35.934Z,1.45
2023-01-17T03:33:03.155Z,1.37
2023-01-17T03:35:30.077Z,1.38
2023-01-17T03:37:57.130Z,1.31
2023-01-17T03:40:24.461Z,1.42
2023-01-17T03:42:51.367Z,1.53
2023-01-17T03:45:18.348Z,1.57
2023-01-17T03:47:45.419Z,1.55
2023-01-17T03:50:12.517Z,1.48
2023-01-17T03:52:39.447Z,1.60
2023-01-17T03:55:07.497Z,1.60
2023-01-17T03:57:34.411Z,1.50
2023-01-17T04:00:01.464Z,1.58
2023-01-17T04:02:28.412Z,1.53
2023-01-17T04:04:55.495Z,1.58
2023-01-17T04:07:22.397Z,1.52
2023-01-17T04:09:49.236Z,1.47
2023-01-17T04:12:16.261Z,1.42
2023-01-17T04:14:43.238Z,1.42
2023-01-17T04:17:10.164Z,1.47
2023-01-17T04:19:37.248Z,1.52
2023-01-17T04:22:04.055Z,1.50
2023-01-17T04:24:30.961Z,1.46
2023-01-17T04:26:59.198Z,1.50
2023-01-17T04:29:26.191Z,1.49
2023-01-17T04:31:53.158Z,1.49
2023-01-17T04:34:20.307Z,1.48
2023-01-17T04:36:47.265Z,1.34
2023-01-17T04:39:14.567Z,1.45
2023-01-17T04:41:41.443Z,1.53
2023-01-17T04:44:08.553Z,1.43
2023-01-17T04:46:35.373Z,1.05
2023-01-17T04:49:02.250Z,1.08
2023-01-17T04:51:29.061Z,1.20
2023-01-17T04:53:55.914Z,0.79
2023-01-17T04:56:24.854Z,1.03
2023-01-17T04:58:51.717Z,1.00
2023-01-17T05:01:18.693Z,1.02
2023-01-17T05:03:45.595Z,1.08
2023-01-17T05:06:12.440Z,0.89
2023-01-17T05:08:39.513Z,0.95
2023-01-17T05:11:06.293Z,1.11
2023-01-17T05:13:33.755Z,1.14
2023-01-17T05:16:00.641Z,1.19
2023-01-17T05:18:27.587Z,1.28
2023-01-17T05:20:54.461Z,1.34
2023-01-17T05:23:21.345Z,1.44
2023-01-17T05:25:48.389Z,1.36
2023-01-17T05:28:15.266Z,1.32
2023-01-17T05:30:42.248Z,1.31
2023-01-17T05:33:09.074Z,1.33
2023-01-17T05:35:36.444Z,1.31
2023-01-17T05:38:03.323Z,1.26
2023-01-17T05:40:30.154Z,1.27
2023-01-17T05:42:56.922Z,1.28
2023-01-17T05:45:23.978Z,1.09
2023-01-17T05:47:50.899Z,1.11
2023-01-17T05:50:17.724Z,1.15
2023-01-17T05:52:44.524Z,1.26
2023-01-17T05:55:11.411Z,1.37
2023-01-17T05:57:38.253Z,1.33
2023-01-17T06:00:07.428Z,1.40
2023-01-17T06:02:34.246Z,1.40
2023-01-17T06:05:03.329Z,0.88
2023-01-17T06:07:30.553Z,1.05
2023-01-17T06:09:57.381Z,1.05
2023-01-17T06:12:24.262Z,1.19
2023-01-17T06:14:51.110Z,1.31
2023-01-17T06:17:18.091Z,1.37
2023-01-17T06:19:45.128Z,1.36
2023-01-17T06:22:11.965Z,1.41
2023-01-17T06:24:38.834Z,1.45
2023-01-17T06:27:05.860Z,1.51
2023-01-17T06:29:32.696Z,1.55
2023-01-17T06:32:01.624Z,1.42
2023-01-17T06:34:29.080Z,1.19
2023-01-17T06:36:56.081Z,0.97
2023-01-17T06:39:22.908Z,1.01
2023-01-17T06:41:49.719Z,1.02
2023-01-17T06:44:16.551Z,1.02
2023-01-17T06:46:43.523Z,1.02
2023-01-17T06:49:10.321Z,1.06
2023-01-17T06:51:37.193Z,1.03
2023-01-17T06:54:03.987Z,1.12
2023-01-17T06:56:30.842Z,1.10
2023-01-17T06:58:57.674Z,1.03
2023-01-17T07:01:24.928Z,1.09
2023-01-17T07:03:51.869Z,1.01
2023-01-17T07:06:18.847Z,1.06
2023-01-17T07:08:45.704Z,1.14
2023-01-17T07:11:12.653Z,1.14
2023-01-17T07:13:39.455Z,1.15
2023-01-17T07:16:06.289Z,1.20
2023-01-17T07:18:33.146Z,0.92
2023-01-17T07:20:59.999Z,1.08
2023-01-17T07:23:27.152Z,1.17
2023-01-17T07:25:53.971Z,1.11
2023-01-17T07:28:20.799Z,1.20
2023-01-17T07:30:47.728Z,1.15
2023-01-17T07:33:14.635Z,0.92
2023-01-17T07:35:41.700Z,1.08
2023-01-17T07:38:08.900Z,0.84
2023-01-17T07:40:42.071Z,0.96
2023-01-17T07:43:09.274Z,1.04
2023-01-17T07:45:36.088Z,1.16
2023-01-17T07:48:04.118Z,1.23
2023-01-17T07:50:31.058Z,1.28
2023-01-17T07:52:57.936Z,1.22
2023-01-17T07:55:24.808Z,1.24
2023-01-17T07:57:51.843Z,1.36
2023-01-17T08:00:18.745Z,1.46
2023-01-17T08:02:45.666Z,1.55
2023-01-17T08:05:12.515Z,1.72
2023-01-17T08:07:39.320Z,1.65
2023-01-17T08:10:06.211Z,1.63
2023-01-17T08:12:33.119Z,1.59
2023-01-17T08:14:59.954Z,1.73
2023-01-17T08:17:26.791Z,1.68
2023-01-17T08:19:53.627Z,1.62
2023-01-17T08:22:20.414Z,1.51
2023-01-17T08:24:47.537Z,1.56
2023-01-17T08:27:14.458Z,1.42
2023-01-17T08:29:41.322Z,1.35
2023-01-17T08:32:08.376Z,1.24
2023-01-17T08:34:35.258Z,1.37
2023-01-17T08:37:02.106Z,1.45
2023-01-17T08:39:28.923Z,1.53
2023-01-17T08:41:55.767Z,1.59
2023-01-17T08:44:22.574Z,1.72
2023-01-17T08:46:49.387Z,1.66
2023-01-17T08:49:16.183Z,1.57
2023-01-17T08:51:43.046Z,1.90
2023-01-17T08:54:09.929Z,1.63
2023-01-17T08:56:36.719Z,1.73
2023-01-17T08:59:03.559Z,2.01
2023-01-17T09:01:30.552Z,1.88
2023-01-17T09:03:57.520Z,1.95
2023-01-17T09:06:24.427Z,1.95
2023-01-17T09:08:51.269Z,2.05
2023-01-17T09:11:18.066Z,2.11
2023-01-17T09:13:44.969Z,2.21
2023-01-17T09:16:11.990Z,2.23
2023-01-17T09:18:39.034Z,2.30
2023-01-17T09:21:05.885Z,2.27
2023-01-17T09:23:35.306Z,2.27
2023-01-17T09:26:02.218Z,2.28
2023-01-17T09:28:29.029Z,2.41
2023-01-17T09:30:56.037Z,2.44
2023-01-17T09:33:22.826Z,2.54
2023-01-17T09:35:49.735Z,2.50
2023-01-17T09:38:16.579Z,2.42
2023-01-17T09:40:43.432Z,2.46
2023-01-17T09:43:10.203Z,2.48
2023-01-17T09:45:37.212Z,2.53
2023-01-17T09:48:04.539Z,2.58
2023-01-17T09:50:31.365Z,2.56
2023-01-17T09:52:58.483Z,2.58
2023-01-17T09:55:25.346Z,2.59
2023-01-17T09:57:52.260Z,2.65
2023-01-17T10:00:21.933Z,2.67
2023-01-17T10:02:48.991Z,2.72
2023-01-17T10:05:15.915Z,2.81
2023-01-17T10:07:42.700Z,2.72
2023-01-17T10:10:09.573Z,2.78
2023-01-17T10:12:36.452Z,2.81
2023-01-17T10:15:03.324Z,2.98
2023-01-17T10:17:30.303Z,3.13
2023-01-17T10:19:57.690Z,3.20
2023-01-17T10:22:24.687Z,3.28
2023-01-17T10:24:51.677Z,3.07
2023-01-17T10:27:18.557Z,3.27
2023-01-17T10:29:45.345Z,3.45
2023-01-17T10:32:12.176Z,3.47
2023-01-17T10:34:39.527Z,3.39
2023-01-17T10:37:06.349Z,3.45
2023-01-17T10:39:33.936Z,3.57
2023-01-17T10:42:00.745Z,3.60
2023-01-17T10:44:27.588Z,3.47
2023-01-17T10:46:54.522Z,3.50
2023-01-17T10:49:21.343Z,3.49
2023-01-17T10:51:48.232Z,3.53
2023-01-17T10:54:15.116Z,3.66
2023-01-17T10:56:42.016Z,3.81
2023-01-17T10:59:09.267Z,3.70
2023-01-17T11:01:36.260Z,3.73
2023-01-17T11:04:03.176Z,3.73
2023-01-17T11:06:29.999Z,3.76
2023-01-17T11:08:57.050Z,3.77
2023-01-17T11:11:23.821Z,3.84
2023-01-17T11:13:50.703Z,3.81
2023-01-17T11:16:17.516Z,3.86
2023-01-17T11:18:44.389Z,3.88
2023-01-17T11:21:11.348Z,3.71
2023-01-17T11:23:38.144Z,3.79
2023-01-17T11:26:04.973Z,3.81
2023-01-17T11:28:31.798Z,3.87
2023-01-17T11:30:58.735Z,3.87
2023-01-17T11:33:25.601Z,3.97
2023-01-17T11:35:52.586Z,3.81
2023-01-17T11:38:19.521Z,3.94
2023-01-17T11:40:46.495Z,3.81
2023-01-17T11:43:13.407Z,3.73
2023-01-17T11:45:40.451Z,3.67
2023-01-17T11:48:07.269Z,3.88
2023-01-17T11:50:34.660Z,3.92
2023-01-17T11:53:01.517Z,4.09
2023-01-17T11:55:28.309Z,3.96
2023-01-17T11:57:56.511Z,3.92
2023-01-17T12:00:23.649Z,3.83
2023-01-17T12:02:50.691Z,3.81
2023-01-17T12:05:17.664Z,4.10
2023-01-17T12:07:44.484Z,3.97
2023-01-17T12:10:11.471Z,4.03
2023-01-17T12:12:38.459Z,3.94
2023-01-17T12:15:05.386Z,3.73
2023-01-17T12:17:32.976Z,3.90
2023-01-17T12:19:59.787Z,3.84
2023-01-17T12:22:27.596Z,3.94
2023-01-17T12:24:54.472Z,3.87
2023-01-17T12:27:21.458Z,3.96
2023-01-17T12:29:48.647Z,4.06
2023-01-17T12:32:15.452Z,3.93
2023-01-17T12:34:42.374Z,4.11
2023-01-17T12:37:09.238Z,4.11
2023-01-17T12:39:36.150Z,4.18
2023-01-17T12:42:03.089Z,4.33
2023-01-17T12:44:29.911Z,4.36
2023-01-17T12:46:56.737Z,4.37
2023-01-17T12:49:24.050Z,4.35
2023-01-17T12:51:52.953Z,4.29
2023-01-17T12:54:19.868Z,4.57
2023-01-17T12:56:46.749Z,4.93
2023-01-17T12:59:13.597Z,5.07
2023-01-17T13:01:40.592Z,4.95
2023-01-17T13:04:07.617Z,4.75
2023-01-17T13:06:34.599Z,4.64
2023-01-17T13:09:03.896Z,4.53
2023-01-17T13:11:30.831Z,4.58
2023-01-17T13:13:57.770Z,4.39
2023-01-17T13:16:24.609Z,4.18
2023-01-17T13:18:51.681Z,4.07
2023-01-17T13:21:18.915Z,4.16
2023-01-17T13:23:45.845Z,4.28
2023-01-17T13:26:12.756Z,4.40
2023-01-17T13:28:39.775Z,4.27
2023-01-17T13:31:06.946Z,4.13
2023-01-17T13:33:33.761Z,3.94
2023-01-17T13:36:00.558Z,3.86
2023-01-17T13:38:27.414Z,4.00
2023-01-17T13:40:54.272Z,4.04
2023-01-17T13:43:21.092Z,4.16
2023-01-17T13:45:48.000Z,4.05
2023-01-17T13:48:14.963Z,4.06
2023-01-17T13:50:41.804Z,4.12
2023-01-17T13:53:08.633Z,4.27
2023-01-17T13:55:35.432Z,4.24
2023-01-17T13:58:02.399Z,3.99
2023-01-17T14:00:29.257Z,4.05
2023-01-17T14:02:56.233Z,3.89
2023-01-17T14:05:23.252Z,4.01
2023-01-17T14:07:50.174Z,3.98
2023-01-17T14:10:17.217Z,3.93
2023-01-17T14:12:44.096Z,4.01
2023-01-17T14:15:10.907Z,3.91
2023-01-17T14:17:37.725Z,3.94
2023-01-17T14:20:04.524Z,4.08
2023-01-17T14:22:31.598Z,4.06
2023-01-17T14:24:58.444Z,3.95
2023-01-17T14:27:25.563Z,3.85
2023-01-17T14:29:52.484Z,3.86
2023-01-17T14:32:19.307Z,3.81
2023-01-17T14:34:46.131Z,3.80
2023-01-17T14:37:12.995Z,4.01
2023-01-17T14:39:39.780Z,4.03
2023-01-17T14:42:06.749Z,4.00
2023-01-17T14:44:34.218Z,3.87
2023-01-17T14:47:01.074Z,3.92
2023-01-17T14:49:27.885Z,4.00
2023-01-17T14:51:54.899Z,3.97
2023-01-17T14:54:21.860Z,3.88
2023-01-17T14:56:48.738Z,4.00
2023-01-17T14:59:15.501Z,3.63
2023-01-17T15:01:42.569Z,3.65
2023-01-17T15:04:09.508Z,3.61
2023-01-17T15:06:36.540Z,3.65
2023-01-17T15:09:03.343Z,3.72
2023-01-17T15:11:30.182Z,3.74
2023-01-17T15:13:56.974Z,3.78
2023-01-17T15:16:23.783Z,3.73
2023-01-17T15:18:50.580Z,3.54
2023-01-17T15:21:17.410Z,3.59
2023-01-17T15:23:44.377Z,3.72
2023-01-17T15:26:11.405Z,3.64
2023-01-17T15:28:38.240Z,3.35
2023-01-17T15:31:05.194Z,3.30
2023-01-17T15:33:32.011Z,3.54
2023-01-17T15:35:58.886Z,3.58
2023-01-17T15:38:25.753Z,3.73
2023-01-17T15:40:52.556Z,3.70
2023-01-17T15:43:19.444Z,3.83
2023-01-17T15:45:46.588Z,3.60
2023-01-17T15:48:13.530Z,3.84
2023-01-17T15:50:40.441Z,3.88
2023-01-17T15:53:07.273Z,3.82
2023-01-17T15:55:34.269Z,3.81
2023-01-17T15:58:01.076Z,3.64
2023-01-17T16:00:28.018Z,3.62
2023-01-17T16:02:54.853Z,3.69
2023-01-17T16:05:22.285Z,3.73
2023-01-17T16:07:49.292Z,3.79
2023-01-17T16:10:16.128Z,3.39
2023-01-17T16:12:42.870Z,3.62
2023-01-17T16:15:13.112Z,3.61
2023-01-17T16:17:40.361Z,3.98
2023-01-17T16:20:07.232Z,3.80
2023-01-17T16:22:34.131Z,3.97
2023-01-17T16:25:01.017Z,3.82
2023-01-17T16:27:27.717Z,3.55
2023-01-17T16:29:56.398Z,3.54
2023-01-17T16:32:24.122Z,3.63
2023-01-17T16:34:51.324Z,3.28
2023-01-17T16:37:18.842Z,3.35
2023-01-17T16:39:46.624Z,3.42
2023-01-17T16:42:13.549Z,3.33
2023-01-17T16:44:40.556Z,3.60
2023-01-17T16:47:07.462Z,3.71
2023-01-17T16:49:34.281Z,3.68
2023-01-17T16:52:01.087Z,3.44
2023-01-17T16:54:27.948Z,3.49
2023-01-17T16:56:54.835Z,3.24
2023-01-17T16:59:21.608Z,3.22
2023-01-17T17:01:48.728Z,3.45
2023-01-17T17:04:15.810Z,3.57
2023-01-17T17:06:43.002Z,3.33
2023-01-17T17:09:10.147Z,3.25
2023-01-17T17:11:36.946Z,3.10
2023-01-17T17:14:04.038Z,3.20
2023-01-17T17:16:33.961Z,3.15
2023-01-17T17:19:03.419Z,3.38
2023-01-17T17:21:30.240Z,3.47
2023-01-17T17:23:57.112Z,3.29
2023-01-17T17:26:24.354Z,3.20
2023-01-17T17:28:51.256Z,3.14
2023-01-17T17:31:18.127Z,3.18
2023-01-17T17:33:45.346Z,3.25
2023-01-17T17:36:12.479Z,3.34
2023-01-17T17:38:39.565Z,3.41
2023-01-17T17:41:06.550Z,3.34
2023-01-17T17:43:33.616Z,3.40
2023-01-17T17:46:01.608Z,2.92
2023-01-17T17:48:29.978Z,3.18
2023-01-17T17:50:59.521Z,3.05
2023-01-17T17:53:26.700Z,3.26
2023-01-17T17:55:54.037Z,3.23
2023-01-17T17:58:21.267Z,3.02
2023-01-17T18:00:48.970Z,3.34
2023-01-17T18:03:16.149Z,3.39
2023-01-17T18:05:43.385Z,3.39
2023-01-17T18:08:10.671Z,3.59
2023-01-17T18:10:37.690Z,3.52
2023-01-17T18:13:07.504Z,3.54
2023-01-17T18:15:35.062Z,3.35
2023-01-17T18:18:02.449Z,3.23
2023-01-17T18:20:30.063Z,3.22
2023-01-17T18:22:58.631Z,3.22
2023-01-17T18:25:25.503Z,3.45
2023-01-17T18:27:52.833Z,3.26
2023-01-17T18:30:20.120Z,3.05
2023-01-17T18:32:48.473Z,3.00
2023-01-17T18:35:15.395Z,3.08
2023-01-17T18:37:43.458Z,3.12
2023-01-17T18:40:10.706Z,2.77
2023-01-17T18:42:38.879Z,2.91
2023-01-17T18:45:06.262Z,3.00
2023-01-17T18:47:33.790Z,2.86
2023-01-17T18:50:02.378Z,2.67
2023-01-17T18:52:29.376Z,2.84
2023-01-17T18:54:56.649Z,2.91
2023-01-17T18:57:23.732Z,2.82
2023-01-17T18:59:50.972Z,2.88
2023-01-17T19:02:18.483Z,3.02
2023-01-17T19:04:45.801Z,3.01
2023-01-17T19:07:12.951Z,2.88
2023-01-17T19:09:40.304Z,2.99
2023-01-17T19:12:07.794Z,3.03
2023-01-17T19:14:34.994Z,3.02
2023-01-17T19:17:02.865Z,3.23
2023-01-17T19:19:30.315Z,3.08
2023-01-17T19:21:58.156Z,2.95
2023-01-17T19:24:26.061Z,3.15
2023-01-17T19:26:53.306Z,3.26
2023-01-17T19:29:21.063Z,3.38
2023-01-17T19:31:48.548Z,3.63
2023-01-17T19:34:15.839Z,3.79
2023-01-17T19:36:44.287Z,4.11
2023-01-17T19:39:11.482Z,4.10
2023-01-17T19:41:39.398Z,4.42
2023-01-17T19:44:06.895Z,4.21
2023-01-17T19:46:34.386Z,4.17
2023-01-17T19:49:01.508Z,4.12
2023-01-17T19:51:28.873Z,3.90
2023-01-17T19:53:56.469Z,3.78
2023-01-17T19:56:23.913Z,3.88
2023-01-17T19:58:51.136Z,3.80
2023-01-17T20:01:21.827Z,3.53
2023-01-17T20:03:49.573Z,3.38
2023-01-17T20:06:17.035Z,3.33
2023-01-17T20:08:44.197Z,3.40
2023-01-17T20:11:11.709Z,3.44
2023-01-17T20:13:38.893Z,3.36
2023-01-17T20:16:06.385Z,3.25
2023-01-17T20:18:33.570Z,3.29
2023-01-17T20:21:02.543Z,3.43
2023-01-17T20:23:29.665Z,3.36
2023-01-17T20:25:57.857Z,3.36
2023-01-17T20:28:24.775Z,2.82
2023-01-17T20:30:53.663Z,2.98
2023-01-17T20:33:21.142Z,3.12
2023-01-17T20:35:51.630Z,2.78
2023-01-17T20:38:25.913Z,3.13
2023-01-17T20:40:54.602Z,2.80
2023-01-17T20:43:21.815Z,2.94
2023-01-17T20:45:49.826Z,3.07
2023-01-17T20:48:17.259Z,3.11
2023-01-17T20:50:44.911Z,2.90
2023-01-17T20:53:11.833Z,2.94
2023-01-17T20:55:38.957Z,3.09
2023-01-17T20:58:05.925Z,2.87
2023-01-17T21:00:33.334Z,2.65
2023-01-17T21:03:00.235Z,2.76
2023-01-17T21:05:27.634Z,2.77
2023-01-17T21:07:55.091Z,2.91
2023-01-17T21:10:22.783Z,3.01
2023-01-17T21:12:50.200Z,2.92
2023-01-17T21:15:17.178Z,3.03
2023-01-17T21:17:44.505Z,2.75
2023-01-17T21:20:11.490Z,2.75
2023-01-17T21:22:38.441Z,2.84
2023-01-17T21:25:05.733Z,2.86
2023-01-17T21:27:32.615Z,2.84
2023-01-17T21:29:59.901Z,2.59
2023-01-17T21:32:26.941Z,2.58
2023-01-17T21:34:53.777Z,2.69
2023-01-17T21:37:20.863Z,2.49
2023-01-17T21:39:47.738Z,2.55
2023-01-17T21:42:14.710Z,2.35
2023-01-17T21:44:41.532Z,2.11
2023-01-17T21:47:08.352Z,2.21
2023-01-17T21:49:36.183Z,2.08
2023-01-17T21:52:02.993Z,2.15
2023-01-17T21:54:29.832Z,2.32
2023-01-17T21:56:56.695Z,2.42
2023-01-17T21:59:23.451Z,2.25
2023-01-17T22:01:50.601Z,2.48
2023-01-17T22:04:17.528Z,2.54
2023-01-17T22:06:44.677Z,2.74
2023-01-17T22:09:11.541Z,2.56
2023-01-17T22:11:38.401Z,2.28
2023-01-17T22:14:05.475Z,2.19
2023-01-17T22:16:32.517Z,2.42
2023-01-17T22:18:59.349Z,2.10
2023-01-17T22:21:26.257Z,2.27
2023-01-17T22:23:53.061Z,2.41
2023-01-17T22:26:20.029Z,2.63
2023-01-17T22:28:46.878Z,2.69
2023-01-17T22:31:14.078Z,2.43
2023-01-17T22:33:40.986Z,2.55
2023-01-17T22:36:07.916Z,2.59
2023-01-17T22:38:34.772Z,2.76
2023-01-17T22:41:01.665Z,2.76
2023-01-17T22:43:28.760Z,2.72
2023-01-17T22:45:56.430Z,2.78
2023-01-17T22:48:23.727Z,2.71
2023-01-17T22:50:50.593Z,2.27
2023-01-17T22:53:17.986Z,2.23
2023-01-17T22:55:45.133Z,2.28
2023-01-17T22:58:11.943Z,2.32
2023-01-17T23:00:38.811Z,2.38
2023-01-17T23:03:06.024Z,2.32
2023-01-17T23:05:33.949Z,2.36
2023-01-17T23:08:02.325Z,2.49
2023-01-17T23:10:29.914Z,2.46
2023-01-17T23:12:57.489Z,2.31
2023-01-17T23:15:24.589Z,2.13
2023-01-17T23:17:51.532Z,1.93
2023-01-17T23:20:18.346Z,1.94
2023-01-17T23:22:45.149Z,1.94
2023-01-17T23:25:12.086Z,1.99
2023-01-17T23:27:39.194Z,1.61
2023-01-17T23:30:06.255Z,1.53
2023-01-17T23:32:33.105Z,1.92
2023-01-17T23:34:59.943Z,2.14
2023-01-17T23:37:26.790Z,2.15
2023-01-17T23:39:53.703Z,2.12
2023-01-17T23:42:20.552Z,2.35
2023-01-17T23:44:47.382Z,2.39
2023-01-17T23:47:14.388Z,2.53
2023-01-17T23:49:41.279Z,2.56
2023-01-17T23:52:08.197Z,2.52
2023-01-17T23:54:35.379Z,2.51
2023-01-17T23:57:02.333Z,2.53
2023-01-17T23:59:29.199Z,2.39
